sensor_id;sensor_type;location;lat;lon;timestamp;P1;durP1;ratioP1;P2;durP2;ratioP2
85154;SDS011;75523;53.218;6.564;2024-03-23T00:55:39;51.80;;;46.75;;
85154;SDS011;75523;53.218;6.564;2024-03-23T00:58:05;55.38;;;49.65;;
85154;SDS011;75523;53.218;6.564;2024-03-23T01:00:30;54.97;;;49.63;;
85154;SDS011;75523;53.218;6.564;2024-03-23T01:02:56;55.42;;;50.13;;
85154;SDS011;75523;53.218;6.564;2024-03-23T01:05:22;56.00;;;50.50;;
85154;SDS011;75523;53.218;6.564;2024-03-23T01:07:47;55.40;;;49.83;;
85154;SDS011;75523;53.218;6.564;2024-03-23T01:10:12;58.03;;;52.50;;
85154;SDS011;75523;53.218;6.564;2024-03-23T01:12:38;57.95;;;52.13;;
85154;SDS011;75523;53.218;6.564;2024-03-23T01:15:03;54.70;;;49.70;;
85154;SDS011;75523;53.218;6.564;2024-03-23T01:17:29;58.30;;;52.92;;
85154;SDS011;75523;53.218;6.564;2024-03-23T01:19:54;57.40;;;52.05;;
85154;SDS011;75523;53.218;6.564;2024-03-23T01:22:19;55.92;;;50.53;;
85154;SDS011;75523;53.218;6.564;2024-03-23T01:24:45;57.70;;;52.30;;
85154;SDS011;75523;53.218;6.564;2024-03-23T01:27:10;55.65;;;50.92;;
85154;SDS011;75523;53.218;6.564;2024-03-23T01:29:36;58.83;;;53.72;;
85154;SDS011;75523;53.218;6.564;2024-03-23T01:32:01;54.17;;;49.42;;
85154;SDS011;75523;53.218;6.564;2024-03-23T01:34:27;60.08;;;50.63;;
85154;SDS011;75523;53.218;6.564;2024-03-23T01:36:53;58.38;;;52.38;;
85154;SDS011;75523;53.218;6.564;2024-03-23T01:39:18;60.47;;;54.25;;
85154;SDS011;75523;53.218;6.564;2024-03-23T01:41:44;56.58;;;51.72;;
85154;SDS011;75523;53.218;6.564;2024-03-23T01:44:09;56.45;;;50.78;;
85154;SDS011;75523;53.218;6.564;2024-03-23T01:46:36;56.45;;;50.53;;
85154;SDS011;75523;53.218;6.564;2024-03-23T01:49:02;55.85;;;50.55;;
85154;SDS011;75523;53.218;6.564;2024-03-23T01:51:27;56.40;;;50.40;;
85154;SDS011;75523;53.218;6.564;2024-03-23T01:53:54;55.78;;;50.50;;
85154;SDS011;75523;53.218;6.564;2024-03-23T01:56:20;55.15;;;50.00;;
85154;SDS011;75523;53.218;6.564;2024-03-23T01:58:45;58.72;;;53.25;;
85154;SDS011;75523;53.218;6.564;2024-03-23T02:01:11;60.42;;;54.92;;
85154;SDS011;75523;53.218;6.564;2024-03-23T02:03:37;57.33;;;51.05;;
85154;SDS011;75523;53.218;6.564;2024-03-23T02:06:02;57.53;;;52.35;;
85154;SDS011;75523;53.218;6.564;2024-03-23T02:08:28;57.72;;;52.75;;
85154;SDS011;75523;53.218;6.564;2024-03-23T02:10:55;56.95;;;51.80;;
85154;SDS011;75523;53.218;6.564;2024-03-23T02:13:20;57.63;;;51.63;;
85154;SDS011;75523;53.218;6.564;2024-03-23T02:15:46;58.83;;;53.22;;
85154;SDS011;75523;53.218;6.564;2024-03-23T02:18:11;56.15;;;51.08;;
85154;SDS011;75523;53.218;6.564;2024-03-23T02:20:37;55.50;;;50.03;;
85154;SDS011;75523;53.218;6.564;2024-03-23T02:23:03;57.10;;;51.90;;
85154;SDS011;75523;53.218;6.564;2024-03-23T02:25:31;55.15;;;50.83;;
85154;SDS011;75523;53.218;6.564;2024-03-23T02:27:56;61.08;;;55.30;;
85154;SDS011;75523;53.218;6.564;2024-03-23T02:30:23;59.45;;;53.45;;
85154;SDS011;75523;53.218;6.564;2024-03-23T02:32:50;54.55;;;49.83;;
85154;SDS011;75523;53.218;6.564;2024-03-23T02:35:15;56.17;;;50.17;;
85154;SDS011;75523;53.218;6.564;2024-03-23T02:37:41;51.38;;;45.95;;
85154;SDS011;75523;53.218;6.564;2024-03-23T02:40:06;55.20;;;50.83;;
85154;SDS011;75523;53.218;6.564;2024-03-23T02:42:32;58.90;;;53.80;;
85154;SDS011;75523;53.218;6.564;2024-03-23T02:44:58;54.80;;;50.15;;
85154;SDS011;75523;53.218;6.564;2024-03-23T02:47:23;57.88;;;51.75;;
85154;SDS011;75523;53.218;6.564;2024-03-23T02:49:48;56.03;;;51.35;;
85154;SDS011;75523;53.218;6.564;2024-03-23T02:52:14;56.03;;;51.63;;
85154;SDS011;75523;53.218;6.564;2024-03-23T02:54:39;55.08;;;50.15;;
85154;SDS011;75523;53.218;6.564;2024-03-23T02:57:07;57.70;;;52.63;;
85154;SDS011;75523;53.218;6.564;2024-03-23T02:59:32;57.83;;;53.03;;
85154;SDS011;75523;53.218;6.564;2024-03-23T03:01:58;56.30;;;51.55;;
85154;SDS011;75523;53.218;6.564;2024-03-23T03:04:26;57.50;;;52.58;;
85154;SDS011;75523;53.218;6.564;2024-03-23T03:06:51;58.85;;;54.30;;
85154;SDS011;75523;53.218;6.564;2024-03-23T03:09:17;55.05;;;49.35;;
85154;SDS011;75523;53.218;6.564;2024-03-23T03:11:42;55.47;;;51.03;;
85154;SDS011;75523;53.218;6.564;2024-03-23T03:14:07;57.45;;;52.72;;
85154;SDS011;75523;53.218;6.564;2024-03-23T03:16:33;55.60;;;51.00;;
85154;SDS011;75523;53.218;6.564;2024-03-23T03:18:59;53.85;;;49.13;;
85154;SDS011;75523;53.218;6.564;2024-03-23T03:21:24;54.45;;;49.88;;
85154;SDS011;75523;53.218;6.564;2024-03-23T03:23:49;55.03;;;50.97;;
85154;SDS011;75523;53.218;6.564;2024-03-23T03:26:18;53.80;;;49.58;;
85154;SDS011;75523;53.218;6.564;2024-03-23T03:28:43;56.10;;;51.08;;
85154;SDS011;75523;53.218;6.564;2024-03-23T03:31:13;54.22;;;49.47;;
85154;SDS011;75523;53.218;6.564;2024-03-23T03:33:39;56.53;;;51.83;;
85154;SDS011;75523;53.218;6.564;2024-03-23T03:36:05;52.70;;;48.42;;
85154;SDS011;75523;53.218;6.564;2024-03-23T03:38:30;56.33;;;51.58;;
85154;SDS011;75523;53.218;6.564;2024-03-23T03:40:56;52.47;;;48.45;;
85154;SDS011;75523;53.218;6.564;2024-03-23T03:43:22;57.20;;;52.70;;
85154;SDS011;75523;53.218;6.564;2024-03-23T03:45:54;58.65;;;53.58;;
85154;SDS011;75523;53.218;6.564;2024-03-23T03:48:21;59.92;;;54.90;;
85154;SDS011;75523;53.218;6.564;2024-03-23T03:50:46;52.67;;;47.83;;
85154;SDS011;75523;53.218;6.564;2024-03-23T03:53:12;56.22;;;50.90;;
85154;SDS011;75523;53.218;6.564;2024-03-23T03:55:37;52.95;;;48.20;;
85154;SDS011;75523;53.218;6.564;2024-03-23T03:58:03;52.47;;;48.58;;
85154;SDS011;75523;53.218;6.564;2024-03-23T04:00:29;51.80;;;48.08;;
85154;SDS011;75523;53.218;6.564;2024-03-23T04:02:55;54.88;;;50.22;;
85154;SDS011;75523;53.218;6.564;2024-03-23T04:05:21;55.85;;;51.53;;
85154;SDS011;75523;53.218;6.564;2024-03-23T04:07:46;53.13;;;48.55;;
85154;SDS011;75523;53.218;6.564;2024-03-23T04:10:12;55.25;;;50.53;;
85154;SDS011;75523;53.218;6.564;2024-03-23T04:12:38;56.72;;;52.53;;
85154;SDS011;75523;53.218;6.564;2024-03-23T04:15:03;56.00;;;51.17;;
85154;SDS011;75523;53.218;6.564;2024-03-23T04:17:30;59.42;;;54.75;;
85154;SDS011;75523;53.218;6.564;2024-03-23T04:19:58;54.10;;;49.70;;
85154;SDS011;75523;53.218;6.564;2024-03-23T04:22:23;57.63;;;53.63;;
85154;SDS011;75523;53.218;6.564;2024-03-23T04:24:52;55.95;;;50.75;;
85154;SDS011;75523;53.218;6.564;2024-03-23T04:27:18;59.05;;;54.17;;
85154;SDS011;75523;53.218;6.564;2024-03-23T04:29:46;57.78;;;52.78;;
85154;SDS011;75523;53.218;6.564;2024-03-23T04:32:15;54.75;;;50.42;;
85154;SDS011;75523;53.218;6.564;2024-03-23T04:34:41;58.17;;;53.45;;
85154;SDS011;75523;53.218;6.564;2024-03-23T04:37:07;55.80;;;51.67;;
85154;SDS011;75523;53.218;6.564;2024-03-23T04:39:32;57.10;;;52.53;;
85154;SDS011;75523;53.218;6.564;2024-03-23T04:41:58;55.20;;;50.95;;
85154;SDS011;75523;53.218;6.564;2024-03-23T04:44:24;58.70;;;54.83;;
85154;SDS011;75523;53.218;6.564;2024-03-23T04:46:49;55.70;;;51.53;;
85154;SDS011;75523;53.218;6.564;2024-03-23T04:49:14;53.17;;;49.05;;
85154;SDS011;75523;53.218;6.564;2024-03-23T04:51:40;58.08;;;53.63;;
85154;SDS011;75523;53.218;6.564;2024-03-23T04:54:10;57.00;;;52.00;;
85154;SDS011;75523;53.218;6.564;2024-03-23T04:56:36;52.83;;;49.13;;
85154;SDS011;75523;53.218;6.564;2024-03-23T04:59:02;59.67;;;54.92;;
85154;SDS011;75523;53.218;6.564;2024-03-23T05:01:29;51.85;;;47.95;;
85154;SDS011;75523;53.218;6.564;2024-03-23T05:03:56;55.42;;;51.42;;
85154;SDS011;75523;53.218;6.564;2024-03-23T05:06:22;56.78;;;52.35;;
85154;SDS011;75523;53.218;6.564;2024-03-23T05:08:47;54.42;;;50.40;;
85154;SDS011;75523;53.218;6.564;2024-03-23T05:11:13;54.80;;;49.78;;
85154;SDS011;75523;53.218;6.564;2024-03-23T05:13:38;54.92;;;50.53;;
85154;SDS011;75523;53.218;6.564;2024-03-23T05:16:04;57.72;;;53.45;;
85154;SDS011;75523;53.218;6.564;2024-03-23T05:18:29;55.70;;;51.45;;
85154;SDS011;75523;53.218;6.564;2024-03-23T05:20:58;55.00;;;51.33;;
85154;SDS011;75523;53.218;6.564;2024-03-23T05:23:28;55.47;;;51.17;;
85154;SDS011;75523;53.218;6.564;2024-03-23T05:25:53;54.22;;;50.20;;
85154;SDS011;75523;53.218;6.564;2024-03-23T05:28:20;51.10;;;46.70;;
85154;SDS011;75523;53.218;6.564;2024-03-23T05:30:51;55.80;;;51.55;;
85154;SDS011;75523;53.218;6.564;2024-03-23T05:33:18;52.28;;;48.88;;
85154;SDS011;75523;53.218;6.564;2024-03-23T05:35:44;58.72;;;54.00;;
85154;SDS011;75523;53.218;6.564;2024-03-23T05:38:09;57.20;;;53.08;;
85154;SDS011;75523;53.218;6.564;2024-03-23T05:40:35;57.58;;;53.10;;
85154;SDS011;75523;53.218;6.564;2024-03-23T05:43:02;56.97;;;52.58;;
85154;SDS011;75523;53.218;6.564;2024-03-23T05:45:28;51.92;;;47.60;;
85154;SDS011;75523;53.218;6.564;2024-03-23T05:47:54;57.97;;;53.20;;
85154;SDS011;75523;53.218;6.564;2024-03-23T05:50:21;52.08;;;48.65;;
85154;SDS011;75523;53.218;6.564;2024-03-23T05:52:47;56.10;;;52.25;;
85154;SDS011;75523;53.218;6.564;2024-03-23T05:55:13;54.90;;;50.95;;
85154;SDS011;75523;53.218;6.564;2024-03-23T05:57:38;56.78;;;51.97;;
85154;SDS011;75523;53.218;6.564;2024-03-23T06:00:04;53.53;;;49.55;;
85154;SDS011;75523;53.218;6.564;2024-03-23T06:02:35;52.55;;;48.40;;
85154;SDS011;75523;53.218;6.564;2024-03-23T06:05:00;52.85;;;48.58;;
85154;SDS011;75523;53.218;6.564;2024-03-23T06:07:27;50.85;;;47.65;;
85154;SDS011;75523;53.218;6.564;2024-03-23T06:09:52;52.25;;;48.08;;
85154;SDS011;75523;53.218;6.564;2024-03-23T06:12:18;53.55;;;49.92;;
85154;SDS011;75523;53.218;6.564;2024-03-23T06:14:43;53.67;;;50.38;;
85154;SDS011;75523;53.218;6.564;2024-03-23T06:17:08;52.97;;;49.00;;
85154;SDS011;75523;53.218;6.564;2024-03-23T06:19:34;50.72;;;46.70;;
85154;SDS011;75523;53.218;6.564;2024-03-23T06:21:59;51.30;;;48.17;;
85154;SDS011;75523;53.218;6.564;2024-03-23T06:24:25;48.88;;;45.45;;
85154;SDS011;75523;53.218;6.564;2024-03-23T06:26:50;50.63;;;47.47;;
85154;SDS011;75523;53.218;6.564;2024-03-23T06:29:15;48.22;;;45.35;;
85154;SDS011;75523;53.218;6.564;2024-03-23T06:31:41;51.03;;;48.10;;
85154;SDS011;75523;53.218;6.564;2024-03-23T06:34:06;50.17;;;47.13;;
85154;SDS011;75523;53.218;6.564;2024-03-23T06:36:32;53.90;;;50.15;;
85154;SDS011;75523;53.218;6.564;2024-03-23T06:38:58;47.78;;;44.88;;
85154;SDS011;75523;53.218;6.564;2024-03-23T06:41:23;53.35;;;49.92;;
85154;SDS011;75523;53.218;6.564;2024-03-23T06:43:49;50.45;;;47.28;;
85154;SDS011;75523;53.218;6.564;2024-03-23T06:46:14;49.92;;;46.70;;
85154;SDS011;75523;53.218;6.564;2024-03-23T06:48:40;50.40;;;46.80;;
85154;SDS011;75523;53.218;6.564;2024-03-23T06:51:05;51.47;;;47.78;;
85154;SDS011;75523;53.218;6.564;2024-03-23T06:53:31;53.33;;;50.03;;
85154;SDS011;75523;53.218;6.564;2024-03-23T06:55:57;47.10;;;44.35;;
85154;SDS011;75523;53.218;6.564;2024-03-23T06:58:23;48.97;;;46.05;;
85154;SDS011;75523;53.218;6.564;2024-03-23T07:00:49;51.08;;;47.50;;
85154;SDS011;75523;53.218;6.564;2024-03-23T07:03:16;50.03;;;46.75;;
85154;SDS011;75523;53.218;6.564;2024-03-23T07:05:42;47.15;;;43.83;;
85154;SDS011;75523;53.218;6.564;2024-03-23T07:08:08;48.22;;;45.03;;
85154;SDS011;75523;53.218;6.564;2024-03-23T07:10:33;49.25;;;46.25;;
85154;SDS011;75523;53.218;6.564;2024-03-23T07:12:59;46.45;;;43.45;;
85154;SDS011;75523;53.218;6.564;2024-03-23T07:15:24;47.85;;;44.67;;
85154;SDS011;75523;53.218;6.564;2024-03-23T07:17:49;46.97;;;43.65;;
85154;SDS011;75523;53.218;6.564;2024-03-23T07:20:15;45.15;;;42.47;;
85154;SDS011;75523;53.218;6.564;2024-03-23T07:22:41;47.10;;;44.40;;
85154;SDS011;75523;53.218;6.564;2024-03-23T07:25:06;48.50;;;45.65;;
85154;SDS011;75523;53.218;6.564;2024-03-23T07:27:32;44.38;;;41.78;;
85154;SDS011;75523;53.218;6.564;2024-03-23T07:29:58;46.60;;;43.90;;
85154;SDS011;75523;53.218;6.564;2024-03-23T07:32:24;50.08;;;47.38;;
85154;SDS011;75523;53.218;6.564;2024-03-23T07:34:51;46.13;;;43.38;;
85154;SDS011;75523;53.218;6.564;2024-03-23T07:37:17;44.70;;;42.28;;
85154;SDS011;75523;53.218;6.564;2024-03-23T07:39:42;47.15;;;44.15;;
85154;SDS011;75523;53.218;6.564;2024-03-23T07:42:08;49.92;;;46.63;;
85154;SDS011;75523;53.218;6.564;2024-03-23T07:44:33;42.15;;;39.65;;
85154;SDS011;75523;53.218;6.564;2024-03-23T07:47:00;47.10;;;44.50;;
85154;SDS011;75523;53.218;6.564;2024-03-23T07:49:26;44.90;;;42.17;;
85154;SDS011;75523;53.218;6.564;2024-03-23T07:51:51;42.20;;;39.45;;
85154;SDS011;75523;53.218;6.564;2024-03-23T07:54:17;44.35;;;41.60;;
85154;SDS011;75523;53.218;6.564;2024-03-23T07:56:42;38.88;;;36.88;;
85154;SDS011;75523;53.218;6.564;2024-03-23T07:59:07;40.10;;;37.97;;
85154;SDS011;75523;53.218;6.564;2024-03-23T08:01:33;40.95;;;38.40;;
85154;SDS011;75523;53.218;6.564;2024-03-23T08:03:59;39.35;;;37.20;;
85154;SDS011;75523;53.218;6.564;2024-03-23T08:06:24;36.38;;;34.47;;
85154;SDS011;75523;53.218;6.564;2024-03-23T08:08:56;37.60;;;35.25;;
85154;SDS011;75523;53.218;6.564;2024-03-23T08:11:29;35.33;;;33.45;;
85154;SDS011;75523;53.218;6.564;2024-03-23T08:13:56;38.70;;;36.30;;
85154;SDS011;75523;53.218;6.564;2024-03-23T08:16:22;40.10;;;38.00;;
85154;SDS011;75523;53.218;6.564;2024-03-23T08:18:47;38.65;;;36.72;;
85154;SDS011;75523;53.218;6.564;2024-03-23T08:21:13;41.28;;;38.90;;
85154;SDS011;75523;53.218;6.564;2024-03-23T08:23:38;40.63;;;38.08;;
85154;SDS011;75523;53.218;6.564;2024-03-23T08:26:05;41.40;;;39.28;;
85154;SDS011;75523;53.218;6.564;2024-03-23T08:28:41;42.13;;;40.00;;
85154;SDS011;75523;53.218;6.564;2024-03-23T08:31:07;40.78;;;38.60;;
85154;SDS011;75523;53.218;6.564;2024-03-23T08:33:33;39.00;;;36.97;;
85154;SDS011;75523;53.218;6.564;2024-03-23T08:36:00;40.88;;;38.65;;
85154;SDS011;75523;53.218;6.564;2024-03-23T08:38:26;38.97;;;36.88;;
85154;SDS011;75523;53.218;6.564;2024-03-23T08:40:59;42.83;;;39.88;;
85154;SDS011;75523;53.218;6.564;2024-03-23T08:43:28;41.80;;;39.33;;
85154;SDS011;75523;53.218;6.564;2024-03-23T08:46:02;38.70;;;36.15;;
85154;SDS011;75523;53.218;6.564;2024-03-23T08:48:35;40.80;;;38.20;;
85154;SDS011;75523;53.218;6.564;2024-03-23T08:51:06;38.05;;;35.10;;
85154;SDS011;75523;53.218;6.564;2024-03-23T08:53:33;37.38;;;35.13;;
85154;SDS011;75523;53.218;6.564;2024-03-23T08:55:59;36.80;;;34.38;;
85154;SDS011;75523;53.218;6.564;2024-03-23T08:58:26;37.45;;;35.00;;
85154;SDS011;75523;53.218;6.564;2024-03-23T09:00:52;35.95;;;33.58;;
85154;SDS011;75523;53.218;6.564;2024-03-23T09:03:18;36.45;;;33.88;;
85154;SDS011;75523;53.218;6.564;2024-03-23T09:05:43;38.20;;;35.70;;
85154;SDS011;75523;53.218;6.564;2024-03-23T09:08:09;36.95;;;34.10;;
85154;SDS011;75523;53.218;6.564;2024-03-23T09:10:39;37.55;;;35.00;;
85154;SDS011;75523;53.218;6.564;2024-03-23T09:13:04;35.38;;;32.88;;
85154;SDS011;75523;53.218;6.564;2024-03-23T09:15:30;36.85;;;34.20;;
85154;SDS011;75523;53.218;6.564;2024-03-23T09:17:56;35.13;;;32.58;;
85154;SDS011;75523;53.218;6.564;2024-03-23T09:20:23;34.80;;;32.50;;
85154;SDS011;75523;53.218;6.564;2024-03-23T09:22:49;35.42;;;33.00;;
85154;SDS011;75523;53.218;6.564;2024-03-23T09:25:14;37.40;;;35.03;;
85154;SDS011;75523;53.218;6.564;2024-03-23T09:27:40;34.50;;;32.17;;
85154;SDS011;75523;53.218;6.564;2024-03-23T09:30:05;34.78;;;32.63;;
85154;SDS011;75523;53.218;6.564;2024-03-23T09:32:31;35.60;;;33.15;;
85154;SDS011;75523;53.218;6.564;2024-03-23T09:34:56;35.40;;;33.15;;
85154;SDS011;75523;53.218;6.564;2024-03-23T09:37:22;38.60;;;36.22;;
85154;SDS011;75523;53.218;6.564;2024-03-23T09:39:47;41.78;;;38.95;;
85154;SDS011;75523;53.218;6.564;2024-03-23T09:42:12;46.60;;;44.13;;
85154;SDS011;75523;53.218;6.564;2024-03-23T09:44:39;47.53;;;44.90;;
85154;SDS011;75523;53.218;6.564;2024-03-23T09:47:05;44.88;;;42.50;;
85154;SDS011;75523;53.218;6.564;2024-03-23T09:49:30;44.38;;;41.90;;
85154;SDS011;75523;53.218;6.564;2024-03-23T09:51:57;41.50;;;39.28;;
85154;SDS011;75523;53.218;6.564;2024-03-23T09:54:23;47.03;;;44.20;;
85154;SDS011;75523;53.218;6.564;2024-03-23T09:56:49;48.67;;;45.88;;
85154;SDS011;75523;53.218;6.564;2024-03-23T09:59:14;45.50;;;43.15;;
85154;SDS011;75523;53.218;6.564;2024-03-23T10:01:40;47.90;;;45.13;;
85154;SDS011;75523;53.218;6.564;2024-03-23T10:04:06;46.90;;;44.53;;
85154;SDS011;75523;53.218;6.564;2024-03-23T10:06:31;44.90;;;42.70;;
85154;SDS011;75523;53.218;6.564;2024-03-23T10:08:57;43.35;;;41.08;;
85154;SDS011;75523;53.218;6.564;2024-03-23T10:11:22;43.20;;;40.92;;
85154;SDS011;75523;53.218;6.564;2024-03-23T10:13:48;42.47;;;40.08;;
85154;SDS011;75523;53.218;6.564;2024-03-23T10:16:23;40.10;;;37.80;;
85154;SDS011;75523;53.218;6.564;2024-03-23T10:18:49;39.53;;;36.92;;
85154;SDS011;75523;53.218;6.564;2024-03-23T10:21:15;36.90;;;34.38;;
85154;SDS011;75523;53.218;6.564;2024-03-23T10:23:42;35.08;;;32.92;;
85154;SDS011;75523;53.218;6.564;2024-03-23T10:26:15;39.35;;;36.88;;
85154;SDS011;75523;53.218;6.564;2024-03-23T10:28:51;38.38;;;35.58;;
85154;SDS011;75523;53.218;6.564;2024-03-23T10:31:17;36.33;;;34.08;;
85154;SDS011;75523;53.218;6.564;2024-03-23T10:33:44;37.58;;;35.20;;
85154;SDS011;75523;53.218;6.564;2024-03-23T10:36:11;36.63;;;34.33;;
85154;SDS011;75523;53.218;6.564;2024-03-23T10:38:37;35.08;;;32.45;;
85154;SDS011;75523;53.218;6.564;2024-03-23T10:41:04;35.80;;;33.15;;
85154;SDS011;75523;53.218;6.564;2024-03-23T10:43:30;37.33;;;34.25;;
85154;SDS011;75523;53.218;6.564;2024-03-23T10:45:58;36.25;;;33.97;;
85154;SDS011;75523;53.218;6.564;2024-03-23T10:48:23;37.28;;;34.47;;
85154;SDS011;75523;53.218;6.564;2024-03-23T10:50:48;36.90;;;34.70;;
85154;SDS011;75523;53.218;6.564;2024-03-23T10:53:14;34.45;;;32.42;;
85154;SDS011;75523;53.218;6.564;2024-03-23T10:55:40;33.30;;;31.20;;
85154;SDS011;75523;53.218;6.564;2024-03-23T10:58:06;34.53;;;32.53;;
85154;SDS011;75523;53.218;6.564;2024-03-23T11:00:32;32.95;;;30.50;;
85154;SDS011;75523;53.218;6.564;2024-03-23T11:02:57;34.42;;;32.47;;
85154;SDS011;75523;53.218;6.564;2024-03-23T11:07:49;35.03;;;32.90;;
85154;SDS011;75523;53.218;6.564;2024-03-23T11:12:58;34.83;;;32.63;;
85154;SDS011;75523;53.218;6.564;2024-03-23T11:15:24;36.30;;;34.22;;
85154;SDS011;75523;53.218;6.564;2024-03-23T11:18:05;38.70;;;36.35;;
85154;SDS011;75523;53.218;6.564;2024-03-23T11:20:34;37.38;;;35.28;;
85154;SDS011;75523;53.218;6.564;2024-03-23T11:23:00;37.58;;;35.15;;
85154;SDS011;75523;53.218;6.564;2024-03-23T11:25:26;37.38;;;35.17;;
85154;SDS011;75523;53.218;6.564;2024-03-23T11:27:56;37.42;;;35.10;;
85154;SDS011;75523;53.218;6.564;2024-03-23T11:30:26;37.17;;;35.03;;
85154;SDS011;75523;53.218;6.564;2024-03-23T11:32:55;36.63;;;34.33;;
85154;SDS011;75523;53.218;6.564;2024-03-23T11:38:06;36.38;;;33.95;;
85154;SDS011;75523;53.218;6.564;2024-03-23T11:40:32;34.47;;;32.15;;
85154;SDS011;75523;53.218;6.564;2024-03-23T11:43:00;35.65;;;33.38;;
85154;SDS011;75523;53.218;6.564;2024-03-23T11:45:27;34.20;;;31.80;;
85154;SDS011;75523;53.218;6.564;2024-03-23T11:48:05;33.13;;;30.55;;
85154;SDS011;75523;53.218;6.564;2024-03-23T11:50:32;34.25;;;32.05;;
85154;SDS011;75523;53.218;6.564;2024-03-23T11:53:44;34.80;;;32.42;;
85154;SDS011;75523;53.218;6.564;2024-03-23T11:58:11;33.67;;;31.50;;
85154;SDS011;75523;53.218;6.564;2024-03-23T12:00:37;34.72;;;32.50;;
85154;SDS011;75523;53.218;6.564;2024-03-23T12:03:03;33.17;;;31.10;;
85154;SDS011;75523;53.218;6.564;2024-03-23T12:05:29;38.05;;;35.40;;
85154;SDS011;75523;53.218;6.564;2024-03-23T12:07:55;33.85;;;32.03;;
85154;SDS011;75523;53.218;6.564;2024-03-23T12:10:40;39.88;;;36.83;;
85154;SDS011;75523;53.218;6.564;2024-03-23T12:13:05;37.00;;;34.53;;
85154;SDS011;75523;53.218;6.564;2024-03-23T12:15:31;36.97;;;34.50;;
85154;SDS011;75523;53.218;6.564;2024-03-23T12:18:09;37.30;;;34.95;;
85154;SDS011;75523;53.218;6.564;2024-03-23T12:20:35;37.60;;;35.35;;
85154;SDS011;75523;53.218;6.564;2024-03-23T12:23:08;39.60;;;37.15;;
85154;SDS011;75523;53.218;6.564;2024-03-23T12:25:35;39.90;;;37.58;;
85154;SDS011;75523;53.218;6.564;2024-03-23T12:28:00;41.90;;;39.53;;
85154;SDS011;75523;53.218;6.564;2024-03-23T12:30:26;39.38;;;37.08;;
85154;SDS011;75523;53.218;6.564;2024-03-23T12:32:51;44.42;;;41.92;;
85154;SDS011;75523;53.218;6.564;2024-03-23T12:35:17;39.70;;;37.47;;
85154;SDS011;75523;53.218;6.564;2024-03-23T12:37:43;42.28;;;40.17;;
85154;SDS011;75523;53.218;6.564;2024-03-23T12:40:09;45.67;;;43.10;;
85154;SDS011;75523;53.218;6.564;2024-03-23T12:42:34;43.17;;;40.58;;
85154;SDS011;75523;53.218;6.564;2024-03-23T12:45:00;41.85;;;39.47;;
85154;SDS011;75523;53.218;6.564;2024-03-23T12:47:26;43.45;;;40.55;;
85154;SDS011;75523;53.218;6.564;2024-03-23T12:49:52;41.97;;;39.15;;
85154;SDS011;75523;53.218;6.564;2024-03-23T12:52:17;40.72;;;38.20;;
85154;SDS011;75523;53.218;6.564;2024-03-23T12:54:43;44.10;;;41.42;;
85154;SDS011;75523;53.218;6.564;2024-03-23T12:57:08;41.50;;;39.38;;
85154;SDS011;75523;53.218;6.564;2024-03-23T12:59:33;43.20;;;40.42;;
85154;SDS011;75523;53.218;6.564;2024-03-23T13:02:00;43.17;;;40.75;;
85154;SDS011;75523;53.218;6.564;2024-03-23T13:04:26;44.28;;;41.83;;
85154;SDS011;75523;53.218;6.564;2024-03-23T13:06:51;45.53;;;42.92;;
85154;SDS011;75523;53.218;6.564;2024-03-23T13:09:17;44.33;;;41.75;;
85154;SDS011;75523;53.218;6.564;2024-03-23T13:11:42;46.20;;;43.67;;
85154;SDS011;75523;53.218;6.564;2024-03-23T13:14:07;40.85;;;38.40;;
85154;SDS011;75523;53.218;6.564;2024-03-23T13:16:33;40.83;;;37.95;;
85154;SDS011;75523;53.218;6.564;2024-03-23T13:18:58;39.67;;;37.30;;
85154;SDS011;75523;53.218;6.564;2024-03-23T13:21:26;39.88;;;37.10;;
85154;SDS011;75523;53.218;6.564;2024-03-23T13:23:51;40.67;;;38.03;;
85154;SDS011;75523;53.218;6.564;2024-03-23T13:26:17;42.40;;;39.45;;
85154;SDS011;75523;53.218;6.564;2024-03-23T13:28:42;42.00;;;39.30;;
85154;SDS011;75523;53.218;6.564;2024-03-23T13:31:08;40.65;;;38.28;;
85154;SDS011;75523;53.218;6.564;2024-03-23T13:33:33;41.28;;;38.60;;
85154;SDS011;75523;53.218;6.564;2024-03-23T13:35:59;40.13;;;37.83;;
85154;SDS011;75523;53.218;6.564;2024-03-23T13:38:25;40.03;;;37.40;;
85154;SDS011;75523;53.218;6.564;2024-03-23T13:43:20;43.35;;;40.80;;
85154;SDS011;75523;53.218;6.564;2024-03-23T13:45:49;39.83;;;37.65;;
85154;SDS011;75523;53.218;6.564;2024-03-23T13:48:18;37.17;;;35.17;;
85154;SDS011;75523;53.218;6.564;2024-03-23T13:50:45;41.78;;;39.50;;
85154;SDS011;75523;53.218;6.564;2024-03-23T13:53:12;39.00;;;36.70;;
85154;SDS011;75523;53.218;6.564;2024-03-23T13:55:38;42.28;;;39.83;;
85154;SDS011;75523;53.218;6.564;2024-03-23T13:58:11;40.72;;;38.35;;
85154;SDS011;75523;53.218;6.564;2024-03-23T14:00:37;44.42;;;42.05;;
85154;SDS011;75523;53.218;6.564;2024-03-23T14:03:02;42.38;;;40.03;;
85154;SDS011;75523;53.218;6.564;2024-03-23T14:05:28;41.03;;;38.65;;
85154;SDS011;75523;53.218;6.564;2024-03-23T14:07:53;41.38;;;39.10;;
85154;SDS011;75523;53.218;6.564;2024-03-23T14:10:19;40.55;;;38.40;;
85154;SDS011;75523;53.218;6.564;2024-03-23T14:12:45;43.58;;;41.28;;
85154;SDS011;75523;53.218;6.564;2024-03-23T14:15:10;44.28;;;41.92;;
85154;SDS011;75523;53.218;6.564;2024-03-23T14:17:36;44.55;;;41.70;;
85154;SDS011;75523;53.218;6.564;2024-03-23T14:20:01;41.90;;;39.40;;
85154;SDS011;75523;53.218;6.564;2024-03-23T14:22:30;37.20;;;35.30;;
85154;SDS011;75523;53.218;6.564;2024-03-23T14:24:56;43.30;;;40.88;;
85154;SDS011;75523;53.218;6.564;2024-03-23T14:27:21;42.40;;;40.00;;
85154;SDS011;75523;53.218;6.564;2024-03-23T14:29:47;43.50;;;40.90;;
85154;SDS011;75523;53.218;6.564;2024-03-23T14:32:12;41.00;;;38.20;;
85154;SDS011;75523;53.218;6.564;2024-03-23T14:34:38;41.58;;;39.13;;
85154;SDS011;75523;53.218;6.564;2024-03-23T14:37:03;44.15;;;41.30;;
85154;SDS011;75523;53.218;6.564;2024-03-23T14:39:30;41.45;;;38.75;;
85154;SDS011;75523;53.218;6.564;2024-03-23T14:41:56;38.00;;;35.90;;
85154;SDS011;75523;53.218;6.564;2024-03-23T14:44:22;42.70;;;40.03;;
85154;SDS011;75523;53.218;6.564;2024-03-23T14:46:47;43.05;;;40.40;;
85154;SDS011;75523;53.218;6.564;2024-03-23T14:49:14;42.45;;;39.33;;
85154;SDS011;75523;53.218;6.564;2024-03-23T14:54:07;41.55;;;38.90;;
85154;SDS011;75523;53.218;6.564;2024-03-23T14:56:32;40.33;;;37.55;;
85154;SDS011;75523;53.218;6.564;2024-03-23T14:59:00;39.35;;;36.85;;
85154;SDS011;75523;53.218;6.564;2024-03-23T15:01:25;39.55;;;36.72;;
85154;SDS011;75523;53.218;6.564;2024-03-23T15:03:51;39.40;;;36.42;;
85154;SDS011;75523;53.218;6.564;2024-03-23T15:06:18;41.28;;;38.53;;
85154;SDS011;75523;53.218;6.564;2024-03-23T15:08:44;40.30;;;37.65;;
85154;SDS011;75523;53.218;6.564;2024-03-23T15:11:09;40.80;;;38.45;;
85154;SDS011;75523;53.218;6.564;2024-03-23T15:13:35;39.42;;;36.72;;
85154;SDS011;75523;53.218;6.564;2024-03-23T15:16:01;39.53;;;37.35;;
85154;SDS011;75523;53.218;6.564;2024-03-23T15:18:29;37.53;;;35.53;;
85154;SDS011;75523;53.218;6.564;2024-03-23T15:21:04;36.83;;;34.67;;
85154;SDS011;75523;53.218;6.564;2024-03-23T15:23:34;40.28;;;38.17;;
85154;SDS011;75523;53.218;6.564;2024-03-23T15:26:01;42.55;;;40.13;;